Fredericksburg, VA (22401)

11:35 PM EDT on September 02, 2014 (GMT -0400)
Spotswood Estates | Change Station
CLOSE
Current Station
Personal Weather Station
Location: Fredericksburg, VA
Elevation: 240 ft
Nearby Weather Stations

Elev 240 ft 38.26 °N, 77.49 °W | Updated 1 second ago

Light Rain
Light Rain
75.8 °F
Feels Like 76 °F
N
0.0
Wind Variable Wind from WSW
Gusts 0.0 mph

Today
High -- | Low -- °F
--% Chance of Precip.
Yesterday
High -- | Low -- °F
Precip. -- in
6:40 AM 7:38 PM
First Quarter, 58% visible
Pressure 29.91 in
Visibility 10.0 miles
Clouds Scattered Clouds 4200 ft
Mostly Cloudy 8500 ft
Overcast 11000 ft
Heat Index 76 °F
Dew Point 72 °F
Humidity 87%
Rainfall 0.00 in
Snow Depth Not available.
UV 0 out of 12
Pollen 9.30 out of 12
Air Quality Not available.
Flu Activity Not available.
METAR KEZF 030315Z AUTO 26003KT 10SM -RA SCT042 BKN085 OVC110 26/22 A2991 RMK AO2 T02550218

More Conditions Fewer Conditions

Pressure 29.91 in
Visibility 10.0 miles
Clouds Scattered Clouds 4200 ft
Mostly Cloudy 8500 ft
Overcast 11000 ft
Heat Index 76 °F
Dew Point 72 °F
Humidity 87%
Rainfall 0.00 in
Snow Depth Not available.
UV 0 out of 12
Pollen 9.30 out of 12
Air Quality Not available.
Flu Activity Not available.
METAR KEZF 030315Z AUTO 26003KT 10SM -RA SCT042 BKN085 OVC110 26/22 A2991 RMK AO2 T02550218

More Conditions Fewer Conditions

10-Day Weather Forecast

Almanac

Astronomy

Sep. 02, 2014 Rise Set
Actual Time 6:40 AM EDT 7:38 PM EDT
Civil Twilight 6:13 AM EDT 8:05 PM EDT
Nautical Twilight 5:41 AM EDT 8:37 PM EDT
Astronomical Twilight 5:07 AM EDT 9:10 PM EDT
Moon 2:16 PM EDT (9/2) No Moon Set
Length of Visible Light 13h 51m
Length of Day
12h 57m
Tomorrow will be 2m 22s shorter.
First Quarter, 58% of the Moon is Illuminated
Today
First Quarter
Sep 8
Full
Sep 15
Last Quarter
Sep 24
New
Oct 1
First Quarter

Today's Extremes

State Highs State Lows

Community

WunderPhotos

Upload Photos

1,749,867 photos uploaded!

WunderBlogs® & News

Nearby

Snow Depth

Station Depth Elevation
No new snow has been reported.

Earthquake Activity

City Distance Mag. Time & Date
No recent earthquake activity has been reported nearby.
Minimum magnitude displayed is 2.5.

Coastal Water Temperatures

Place Temperature
Washington, DC 82.0 °F
Lewisetta, VA 82.0 °F
Solomons Island, MD 81.0 °F

Nearby Weather Stations